Terminal Aerodrome Forecast
Issued by NWS

Home | Current Version | Previous Version | Text Only | Print | Product List | Glossary On
Versions: 1 2 3 4 5 6 7 8 9 10 11 12 13 14 15 16
000
FTUS43 KDTX 280500
TAFMBS
TAF
KMBS 280521Z 2806/2906 35006KT P6SM OVC050
     FM281000 VRB03KT P6SM SCT040
     FM281600 36006KT P6SM SCT050=

USA.gov is the U.S. government's official web portal to all federal, state and local government web resources and services.